KP69

Lowell Airport

Idaho, USA
METAR KP69 180152Z AUTO 18006KT 28/13 A3001 RMK AO1 PRESRR SLP139 T02780128
Observed Flight Rules
Aug-18 @ 01:52 UTC (36 minutes ago)
Wind
180° at 6 knots
Temperatures Readings
Current 28°C / 82°F
Dewpoint 13°C / 55°F
Humidity 40%
Altimeter 30.01" Hg
Pressure 1013.9 hPa
Elevation 480
METAR KP69 180152Z AUTO 18006KT 28/13 A3001 RMK AO1 PRESRR SLP139 T02780128
Observed Flight Rules
Aug-18 @ 01:52 UTC
(36 minutes ago)
Wind
180° at 6 knots
Temperature Dewpoint
28°C / 82°F 13°C / 55°F
Humidity Altimeter Pressure
40% 30.01" Hg 1013.9 hPa